Terminal Aerodrome Forecast
Issued by NWS

Home | Current Version | Previous Version | Text Only | Print | Product List | Glossary On
Versions: 1 2 3 4 5 6 7 8 9 10 11 12 13 14 15 16
758
FTUS45 KRIW 221734
TAFCPR
TAF
KCPR 221734Z 2218/2318 06005KT P6SM SCT110
     FM222100 09010KT P6SM VCTS SCT060CB BKN100
     FM230000 VRB10G20KT 4SM TSRA BKN030CB
     FM230500 24006KT P6SM -SHRA OVC030
     FM230700 21006KT P6SM VCSH BKN040
     FM231500 21010KT P6SM SCT040 OVC150=

USA.gov is the U.S. government's official web portal to all federal, state and local government web resources and services.